Time;durP1;ratioP1;P1;durP2;ratioP2;P2;SDS_P1;SDS_P2;PMS_P1;PMS_P2;Temp;Humidity;BMP_temperature;BMP_pressure;BME280_temperature;BME280_humidity;BME280_pressure;Samples;Min_cycle;Max_cycle;Signal;HPM_P1;HPM_P2
2023/08/26 00:00:16;;;;;;;;;;;;;;;26.15;35.44;100193.81;5054503;28;19920;-66
2023/08/26 00:02:41;;;;;;;;;;;;;;;26.13;35.54;100201.53;5072341;28;19919;-67
2023/08/26 00:05:07;;;;;;;;;;;;;;;26.13;35.70;100198.78;5072695;28;19947;-67
2023/08/26 00:07:32;;;;;;;;;;;;;;;26.10;35.75;100193.09;5072857;28;19939;-67
2023/08/26 00:09:57;;;;;;;;;;;;;;;26.14;35.58;100192.19;5072607;28;19916;-66
2023/08/26 00:12:22;;;;;;;;;;;;;;;26.14;35.44;100185.88;5072897;28;20005;-66
2023/08/26 00:14:48;;;;;;;;;;;;;;;26.14;35.59;100191.38;5072637;28;20254;-66
2023/08/26 00:17:13;;;;;;;;;;;;;;;26.16;35.51;100197.38;5072593;28;19912;-66
2023/08/26 00:19:38;;;;;;;;;;;;;;;26.20;35.57;100195.66;5072486;28;20368;-66
2023/08/26 00:22:05;;;;;;;;;;;;;;;26.21;35.43;100192.59;5072406;28;19919;-66
2023/08/26 00:24:30;;;;;;;;;;;;;;;26.19;35.49;100183.81;5072573;28;19912;-66
2023/08/26 00:26:55;;;;;;;;;;;;;;;26.17;35.24;100186.06;5072604;28;20301;-66
2023/08/26 00:29:21;;;;;;;;;;;;;;;26.05;35.70;100189.31;5072920;28;19965;-66
2023/08/26 00:31:46;;;;;;;;;;;;;;;26.03;35.74;100180.53;5073029;28;19912;-66
2023/08/26 00:34:11;;;;;;;;;;;;;;;26.04;35.53;100184.13;5074428;28;19912;-65
2023/08/26 00:36:36;;;;;;;;;;;;;;;26.02;35.53;100172.59;5074138;28;20399;-66
2023/08/26 00:39:02;;;;;;;;;;;;;;;25.99;35.56;100171.28;5072945;28;19916;-66
2023/08/26 00:41:27;;;;;;;;;;;;;;;25.99;35.71;100168.53;5076861;28;20353;-66
2023/08/26 00:43:55;;;;;;;;;;;;;;;26.00;35.87;100172.06;5077281;28;19912;-67
2023/08/26 00:46:23;;;;;;;;;;;;;;;26.00;35.97;100169.31;5076500;28;19935;-67
2023/08/26 00:48:48;;;;;;;;;;;;;;;26.02;36.32;100176.19;5076164;28;19936;-67
2023/08/26 00:51:14;;;;;;;;;;;;;;;26.04;36.09;100173.13;5076106;28;19912;-67
2023/08/26 00:53:40;;;;;;;;;;;;;;;26.06;36.03;100168.94;5075440;28;20007;-66
2023/08/26 00:56:05;;;;;;;;;;;;;;;26.04;36.02;100176.69;5076063;28;19912;-67
2023/08/26 00:58:32;;;;;;;;;;;;;;;26.05;35.98;100178.31;5076636;28;20323;-67
2023/08/26 01:00:57;;;;;;;;;;;;;;;26.07;36.11;100178.81;5076487;28;20334;-67
2023/08/26 01:03:22;;;;;;;;;;;;;;;26.02;36.38;100184.44;5076724;28;19952;-67
2023/08/26 01:05:47;;;;;;;;;;;;;;;26.01;36.16;100192.97;5076556;28;19923;-67
2023/08/26 01:08:13;;;;;;;;;;;;;;;26.02;36.15;100187.19;5075907;28;19912;-67
2023/08/26 01:10:57;;;;;;;;;;;;;;;26.01;36.11;100191.03;5075506;28;19923;-66
2023/08/26 01:13:26;;;;;;;;;;;;;;;26.00;36.26;100192.19;5076290;28;19912;-67
2023/08/26 01:15:52;;;;;;;;;;;;;;;25.96;36.11;100199.38;5077200;28;20010;-67
2023/08/26 01:18:18;;;;;;;;;;;;;;;25.99;36.14;100197.97;5073416;28;19970;-67
2023/08/26 01:20:43;;;;;;;;;;;;;;;26.01;36.44;100198.50;5076191;28;19922;-67
2023/08/26 01:23:15;;;;;;;;;;;;;;;26.03;36.49;100191.56;5077058;28;19912;-67
2023/08/26 01:25:41;;;;;;;;;;;;;;;26.02;36.31;100192.69;5076655;28;19912;-67
2023/08/26 01:28:06;;;;;;;;;;;;;;;26.07;36.35;100197.25;5076894;28;19916;-67
2023/08/26 01:30:31;;;;;;;;;;;;;;;26.07;36.12;100189.00;5076509;28;19935;-67
2023/08/26 01:33:20;;;;;;;;;;;;;;;26.04;36.23;100190.44;5077176;28;19916;-67
2023/08/26 01:35:47;;;;;;;;;;;;;;;26.03;36.41;100188.78;5071279;28;19912;-67
2023/08/26 01:38:14;;;;;;;;;;;;;;;26.04;36.18;100187.69;5076837;28;19916;-67
2023/08/26 01:40:40;;;;;;;;;;;;;;;26.01;36.25;100190.22;5059153;28;20580;-67
2023/08/26 01:43:06;;;;;;;;;;;;;;;26.01;36.21;100187.47;5077278;28;19920;-67
2023/08/26 01:45:32;;;;;;;;;;;;;;;26.01;36.28;100192.97;5076928;28;19913;-67
2023/08/26 01:47:57;;;;;;;;;;;;;;;26.00;36.41;100194.94;5076969;28;20007;-67
2023/08/26 01:50:22;;;;;;;;;;;;;;;26.02;36.30;100189.09;5076948;28;20029;-67
2023/08/26 01:52:47;;;;;;;;;;;;;;;26.02;36.32;100189.09;5077079;28;20386;-67
2023/08/26 01:55:13;;;;;;;;;;;;;;;26.01;36.28;100185.53;5076347;28;20461;-67
2023/08/26 01:57:38;;;;;;;;;;;;;;;26.05;36.40;100188.50;5077504;28;19917;-67
2023/08/26 02:00:05;;;;;;;;;;;;;;;26.03;36.46;100185.25;5077283;28;19920;-67
2023/08/26 02:02:30;;;;;;;;;;;;;;;26.02;36.36;100192.69;5077159;28;19912;-67
2023/08/26 02:04:55;;;;;;;;;;;;;;;26.03;36.71;100185.25;5077204;28;20399;-67
2023/08/26 02:07:20;;;;;;;;;;;;;;;26.00;36.50;100186.69;5059473;28;19943;-67
2023/08/26 02:09:46;;;;;;;;;;;;;;;26.05;36.35;100185.75;5076088;28;20315;-67
2023/08/26 02:12:11;;;;;;;;;;;;;;;26.08;36.24;100185.16;5075924;28;19913;-66
2023/08/26 02:14:37;;;;;;;;;;;;;;;26.07;36.13;100186.25;5075656;28;19935;-66
2023/08/26 02:17:03;;;;;;;;;;;;;;;26.11;36.41;100180.97;5057678;28;19920;-67
2023/08/26 02:19:28;;;;;;;;;;;;;;;26.06;36.25;100187.41;5075486;28;19920;-67
2023/08/26 02:21:54;;;;;;;;;;;;;;;26.12;36.31;100193.63;5075697;28;20011;-67
2023/08/26 02:24:19;;;;;;;;;;;;;;;26.07;36.40;100187.06;5074428;28;19919;-67
2023/08/26 02:26:44;;;;;;;;;;;;;;;26.00;36.47;100191.34;5074443;28;19919;-66
2023/08/26 02:29:10;;;;;;;;;;;;;;;25.99;36.54;100186.97;5074539;28;19967;-66
2023/08/26 02:31:35;;;;;;;;;;;;;;;25.95;36.63;100185.94;5074489;28;19944;-66
2023/08/26 02:34:01;;;;;;;;;;;;;;;25.99;36.71;100179.53;5075056;28;19954;-66
2023/08/26 02:36:27;;;;;;;;;;;;;;;26.03;36.41;100174.22;5074839;28;20373;-66
2023/08/26 02:38:55;;;;;;;;;;;;;;;26.03;36.51;100175.03;5074864;28;19968;-66
2023/08/26 02:41:20;;;;;;;;;;;;;;;26.07;36.66;100161.50;5075282;28;19919;-68
2023/08/26 02:43:45;;;;;;;;;;;;;;;26.07;36.81;100156.78;5075316;28;19924;-67
2023/08/26 02:46:10;;;;;;;;;;;;;;;26.06;36.62;100159.88;5075921;28;20443;-66
2023/08/26 02:48:36;;;;;;;;;;;;;;;26.07;37.01;100155.97;5075400;28;20258;-66
2023/08/26 02:51:02;;;;;;;;;;;;;;;26.07;36.51;100169.75;5075725;28;19912;-67
2023/08/26 02:53:28;;;;;;;;;;;;;;;26.07;36.39;100159.53;5074850;28;19916;-67
2023/08/26 02:55:54;;;;;;;;;;;;;;;26.06;36.78;100149.66;5074387;28;19916;-67
2023/08/26 02:58:21;;;;;;;;;;;;;;;26.06;36.33;100157.94;5075671;28;19912;-67
2023/08/26 03:00:47;;;;;;;;;;;;;;;26.13;36.55;100152.00;5075111;28;19923;-67
2023/08/26 03:03:13;;;;;;;;;;;;;;;26.07;36.56;100159.53;5056583;28;19921;-67
2023/08/26 03:05:38;;;;;;;;;;;;;;;26.06;36.74;100154.38;5073937;28;19970;-67
2023/08/26 03:08:04;;;;;;;;;;;;;;;26.07;36.46;100154.03;5074768;28;19913;-67
2023/08/26 03:10:29;;;;;;;;;;;;;;;26.12;36.31;100157.84;5074021;28;19913;-67
2023/08/26 03:12:54;;;;;;;;;;;;;;;26.04;36.43;100160.16;5073795;28;19914;-67
2023/08/26 03:15:20;;;;;;;;;;;;;;;25.99;36.43;100162.22;5074544;28;19931;-66
2023/08/26 03:17:46;;;;;;;;;;;;;;;26.01;36.39;100155.25;5074697;28;19916;-66
2023/08/26 03:20:13;;;;;;;;;;;;;;;26.03;36.45;100155.78;5073995;28;20238;-66
2023/08/26 03:22:40;;;;;;;;;;;;;;;25.99;36.78;100160.25;5073494;28;19924;-66
2023/08/26 03:25:06;;;;;;;;;;;;;;;26.01;36.82;100157.22;5073630;28;19912;-66
2023/08/26 03:27:31;;;;;;;;;;;;;;;26.04;36.64;100156.63;5073925;28;19920;-66
2023/08/26 03:29:56;;;;;;;;;;;;;;;25.95;36.84;100153.75;5073538;28;20373;-66
2023/08/26 03:32:22;;;;;;;;;;;;;;;25.97;37.35;100158.94;5073677;28;19912;-67
2023/08/26 03:34:47;;;;;;;;;;;;;;;25.93;37.36;100155.16;5074000;28;19912;-67
2023/08/26 03:37:12;;;;;;;;;;;;;;;25.89;37.62;100158.50;5073697;28;19916;-67
2023/08/26 03:39:38;;;;;;;;;;;;;;;25.85;37.69;100148.38;5073697;28;19970;-67
2023/08/26 03:42:05;;;;;;;;;;;;;;;25.80;37.75;100140.25;5074340;28;19913;-67
2023/08/26 03:44:30;;;;;;;;;;;;;;;25.82;37.73;100157.28;5073554;28;19919;-67
2023/08/26 03:46:56;;;;;;;;;;;;;;;25.81;38.00;100156.44;5073664;28;19916;-67
2023/08/26 03:49:21;;;;;;;;;;;;;;;25.74;38.41;100160.69;5073561;28;19991;-67
2023/08/26 03:51:46;;;;;;;;;;;;;;;25.73;38.20;100156.34;5073672;28;19920;-67
2023/08/26 03:54:11;;;;;;;;;;;;;;;25.71;38.67;100148.38;5073127;28;19912;-67
2023/08/26 03:56:37;;;;;;;;;;;;;;;25.67;39.01;100152.88;5073725;28;20285;-67
2023/08/26 03:59:03;;;;;;;;;;;;;;;25.63;38.97;100160.91;5072843;28;19916;-67
2023/08/26 04:01:30;;;;;;;;;;;;;;;25.69;39.29;100156.94;5073342;28;19920;-66
2023/08/26 04:03:56;;;;;;;;;;;;;;;25.66;39.08;100159.47;5073042;28;19970;-66
2023/08/26 04:06:22;;;;;;;;;;;;;;;25.58;39.55;100158.22;5073113;28;19993;-66
2023/08/26 04:08:48;;;;;;;;;;;;;;;25.53;39.62;100147.31;5073161;28;20264;-66
2023/08/26 04:11:15;;;;;;;;;;;;;;;25.53;39.53;100157.50;5072769;28;19923;-67
2023/08/26 04:13:40;;;;;;;;;;;;;;;25.56;39.23;100154.16;5073883;28;20381;-67
2023/08/26 04:16:06;;;;;;;;;;;;;;;25.54;39.69;100154.47;5075836;28;19919;-66
2023/08/26 04:18:31;;;;;;;;;;;;;;;25.53;39.63;100150.06;5076595;28;19920;-67
2023/08/26 04:20:56;;;;;;;;;;;;;;;25.46;39.75;100163.38;5059054;28;19924;-66
2023/08/26 04:23:22;;;;;;;;;;;;;;;25.49;39.60;100160.03;5076941;28;19919;-67
2023/08/26 04:25:47;;;;;;;;;;;;;;;25.48;39.66;100161.16;5076702;28;20396;-66
2023/08/26 04:28:14;;;;;;;;;;;;;;;25.46;39.52;100160.63;5077148;28;19919;-66
2023/08/26 04:30:39;;;;;;;;;;;;;;;25.47;39.33;100154.84;5076366;28;19917;-66
2023/08/26 04:33:05;;;;;;;;;;;;;;;25.47;39.48;100154.03;5076826;28;19913;-66
2023/08/26 04:35:31;;;;;;;;;;;;;;;25.46;38.97;100155.97;5077076;28;19939;-66
2023/08/26 04:37:57;;;;;;;;;;;;;;;25.49;39.34;100155.34;5076977;28;20289;-66
2023/08/26 04:40:22;;;;;;;;;;;;;;;25.55;39.27;100156.06;5077283;28;19923;-66
2023/08/26 04:42:47;;;;;;;;;;;;;;;25.55;39.13;100155.25;5076775;28;19919;-67
2023/08/26 04:45:15;;;;;;;;;;;;;;;25.56;39.65;100151.41;5077044;28;19917;-66
2023/08/26 04:47:41;;;;;;;;;;;;;;;25.61;38.93;100141.13;5076885;28;19913;-66
2023/08/26 04:50:07;;;;;;;;;;;;;;;25.66;39.29;100143.78;5075616;28;19917;-66
2023/08/26 04:52:32;;;;;;;;;;;;;;;25.71;38.76;100144.81;5076415;28;19912;-66
2023/08/26 04:54:57;;;;;;;;;;;;;;;25.69;39.29;100154.19;5075243;28;19927;-65
2023/08/26 04:57:23;;;;;;;;;;;;;;;25.76;39.18;100147.47;5076344;28;19912;-65
2023/08/26 04:59:48;;;;;;;;;;;;;;;25.79;38.95;100155.13;5075240;28;19924;-65
2023/08/26 05:02:13;;;;;;;;;;;;;;;25.82;38.80;100158.06;5075745;28;19923;-66
2023/08/26 05:04:38;;;;;;;;;;;;;;;25.85;38.86;100153.88;5072615;28;19927;-66
2023/08/26 05:07:04;;;;;;;;;;;;;;;25.87;38.71;100170.91;5073793;28;20003;-66
2023/08/26 05:09:30;;;;;;;;;;;;;;;25.87;38.63;100170.91;5076027;28;19916;-66
2023/08/26 05:11:58;;;;;;;;;;;;;;;25.85;38.50;100175.91;5075449;28;19916;-66
2023/08/26 05:14:23;;;;;;;;;;;;;;;25.87;38.69;100174.50;5075915;28;19947;-66
2023/08/26 05:16:49;;;;;;;;;;;;;;;25.84;38.77;100177.03;5075627;28;20304;-66
2023/08/26 05:19:14;;;;;;;;;;;;;;;25.85;38.51;100175.91;5075541;28;19952;-66
2023/08/26 05:21:39;;;;;;;;;;;;;;;25.89;38.73;100174.16;5057762;28;19912;-66
2023/08/26 05:24:05;;;;;;;;;;;;;;;25.89;38.48;100182.41;5075554;28;20007;-67
2023/08/26 05:26:30;;;;;;;;;;;;;;;25.88;38.63;100175.31;5074710;28;19912;-67
2023/08/26 05:28:56;;;;;;;;;;;;;;;25.83;38.87;100189.16;5075380;28;19939;-66
2023/08/26 05:31:21;;;;;;;;;;;;;;;25.89;38.71;100182.41;5075147;28;19943;-67
2023/08/26 05:33:46;;;;;;;;;;;;;;;25.92;38.84;100184.59;5075335;28;19957;-67
2023/08/26 05:36:12;;;;;;;;;;;;;;;25.95;38.42;100183.22;5075322;28;19966;-67
2023/08/26 05:38:37;;;;;;;;;;;;;;;25.95;38.60;100186.75;5075068;28;20023;-67
2023/08/26 05:41:05;;;;;;;;;;;;;;;25.93;38.62;100191.75;5075377;28;20704;-67
2023/08/26 05:43:31;;;;;;;;;;;;;;;25.93;38.74;100186.25;5075081;28;20018;-67
2023/08/26 05:45:56;;;;;;;;;;;;;;;26.00;38.31;100189.44;5074950;28;19917;-67
2023/08/26 05:48:22;;;;;;;;;;;;;;;26.01;38.70;100192.97;5075358;28;20006;-67
2023/08/26 05:50:47;;;;;;;;;;;;;;;25.99;38.26;100186.97;5075102;28;19962;-68
2023/08/26 05:53:12;;;;;;;;;;;;;;;26.01;38.47;100196.53;5075124;28;19913;-67
2023/08/26 05:55:37;;;;;;;;;;;;;;;26.08;38.42;100191.47;5074521;28;19912;-66
2023/08/26 05:58:03;;;;;;;;;;;;;;;26.10;38.12;100195.84;5075224;28;20379;-66
2023/08/26 06:00:28;;;;;;;;;;;;;;;26.12;38.22;100201.88;5074935;28;19928;-67
2023/08/26 06:02:53;;;;;;;;;;;;;;;26.14;37.98;100202.38;5078280;28;19920;-67
2023/08/26 06:05:19;;;;;;;;;;;;;;;26.20;38.24;100195.66;5085022;28;20438;-66
2023/08/26 06:07:44;;;;;;;;;;;;;;;26.23;38.16;100195.03;5074847;28;19913;-66
2023/08/26 06:10:09;;;;;;;;;;;;;;;26.24;38.29;100202.16;5074969;28;20410;-66
2023/08/26 06:12:35;;;;;;;;;;;;;;;26.21;38.12;100211.88;5075013;28;19912;-66
2023/08/26 06:15:00;;;;;;;;;;;;;;;26.25;38.24;100212.06;5074641;28;19920;-66
2023/08/26 06:17:26;;;;;;;;;;;;;;;26.29;37.97;100215.84;5075282;28;19921;-66
2023/08/26 06:19:52;;;;;;;;;;;;;;;26.23;38.13;100222.56;5074802;28;19923;-66
2023/08/26 06:22:17;;;;;;;;;;;;;;;26.31;38.15;100218.28;5057143;28;19916;-66
2023/08/26 06:24:42;;;;;;;;;;;;;;;26.25;37.95;100217.56;5061146;28;19944;-66
2023/08/26 06:27:07;;;;;;;;;;;;;;;26.29;37.92;100223.28;5074320;28;19939;-66
2023/08/26 06:29:33;;;;;;;;;;;;;;;26.32;38.05;100225.41;5074457;28;19920;-66
2023/08/26 06:31:58;;;;;;;;;;;;;;;26.27;37.95;100218.09;5074259;28;19934;-66
2023/08/26 06:34:23;;;;;;;;;;;;;;;26.32;37.91;100220.75;5073873;28;19922;-65
2023/08/26 06:36:48;;;;;;;;;;;;;;;26.37;38.17;100212.38;5074037;28;19974;-69
2023/08/26 06:39:14;;;;;;;;;;;;;;;26.38;37.90;100208.50;5073917;28;20027;-70
2023/08/26 06:41:39;;;;;;;;;;;;;;;26.42;37.99;100208.69;5061244;28;19924;-69
2023/08/26 06:44:04;;;;;;;;;;;;;;;26.40;37.82;100206.25;5054292;28;19913;-68
2023/08/26 06:46:30;;;;;;;;;;;;;;;26.44;38.00;100211.97;5054115;28;19935;-69
2023/08/26 06:48:55;;;;;;;;;;;;;;;26.45;37.88;100208.91;5064491;28;19962;-69
2023/08/26 06:51:20;;;;;;;;;;;;;;;26.44;37.81;100220.22;5074024;28;19970;-69
2023/08/26 06:53:45;;;;;;;;;;;;;;;26.46;37.85;100212.47;5073367;28;20288;-69
2023/08/26 06:56:11;;;;;;;;;;;;;;;26.45;37.53;100208.09;5055725;28;20003;-69
2023/08/26 06:58:36;;;;;;;;;;;;;;;26.50;37.53;100212.69;5075776;28;19912;-69
2023/08/26 07:01:02;;;;;;;;;;;;;;;26.55;37.35;100207.06;5082651;28;20311;-69
2023/08/26 07:03:28;;;;;;;;;;;;;;;26.60;37.66;100207.00;5072995;28;19927;-69
2023/08/26 07:05:53;;;;;;;;;;;;;;;26.63;37.68;100203.63;5073795;28;19912;-69
2023/08/26 07:08:19;;;;;;;;;;;;;;;26.68;37.47;100205.47;5073158;28;19948;-69
2023/08/26 07:10:44;;;;;;;;;;;;;;;26.68;37.86;100202.69;5073546;28;20011;-69
2023/08/26 07:13:10;;;;;;;;;;;;;;;26.70;37.57;100195.75;5073390;28;19995;-69
2023/08/26 07:15:35;;;;;;;;;;;;;;;26.65;37.80;100201.38;5073624;28;19957;-69
2023/08/26 07:18:01;;;;;;;;;;;;;;;26.68;37.67;100205.47;5055879;28;19919;-69
2023/08/26 07:20:27;;;;;;;;;;;;;;;26.71;37.53;100219.44;5073135;28;20447;-68
2023/08/26 07:22:52;;;;;;;;;;;;;;;26.78;37.56;100213.50;5072478;28;19920;-66
2023/08/26 07:25:17;;;;;;;;;;;;;;;26.81;37.68;100215.63;5073191;28;19924;-67
2023/08/26 07:27:43;;;;;;;;;;;;;;;26.82;37.57;100217.28;5072889;28;19916;-67
2023/08/26 07:30:08;;;;;;;;;;;;;;;26.83;37.95;100216.13;5072842;28;19927;-66
2023/08/26 07:32:33;;;;;;;;;;;;;;;26.88;37.56;100220.75;5073329;28;19958;-66
2023/08/26 07:34:59;;;;;;;;;;;;;;;26.89;37.55;100225.09;5073324;28;19937;-66
2023/08/26 07:37:24;;;;;;;;;;;;;;;26.91;37.52;100220.91;5064002;28;20265;-66
2023/08/26 07:39:49;;;;;;;;;;;;;;;26.89;37.54;100222.34;5072916;28;19917;-66
2023/08/26 07:42:15;;;;;;;;;;;;;;;26.91;37.60;100225.63;5072995;28;19920;-66
2023/08/26 07:44:41;;;;;;;;;;;;;;;26.96;37.34;100212.53;5072951;28;19912;-66
2023/08/26 07:47:06;;;;;;;;;;;;;;;26.98;37.39;100210.28;5073161;28;19912;-66
2023/08/26 07:49:31;;;;;;;;;;;;;;;27.04;37.17;100208.22;5072269;28;19916;-66
2023/08/26 07:51:56;;;;;;;;;;;;;;;27.03;37.36;100206.59;5072686;28;20380;-65
2023/08/26 07:54:22;;;;;;;;;;;;;;;26.97;37.16;100202.34;5072444;28;19912;-65
2023/08/26 07:56:47;;;;;;;;;;;;;;;27.01;37.20;100206.09;5072567;28;20376;-65
2023/08/26 07:59:13;;;;;;;;;;;;;;;27.09;37.26;100199.84;5072684;28;19928;-65
2023/08/26 08:01:38;;;;;;;;;;;;;;;27.10;37.31;100207.00;5068091;28;20408;-67
2023/08/26 08:04:03;;;;;;;;;;;;;;;27.13;36.94;100205.56;5071051;28;19975;-66
2023/08/26 08:06:29;;;;;;;;;;;;;;;27.12;37.46;100210.25;5071724;28;19921;-66
2023/08/26 08:08:54;;;;;;;;;;;;;;;27.16;37.51;100215.97;5071887;28;20303;-65
2023/08/26 08:11:19;;;;;;;;;;;;;;;27.16;37.37;100219.53;5063958;28;19916;-67
2023/08/26 08:13:47;;;;;;;;;;;;;;;27.17;37.00;100221.19;5072243;28;19992;-66
2023/08/26 08:16:13;;;;;;;;;;;;;;;27.19;37.17;100218.91;5072640;28;20296;-68
2023/08/26 08:18:38;;;;;;;;;;;;;;;27.29;37.18;100217.88;5057977;28;19921;-66
2023/08/26 08:21:04;;;;;;;;;;;;;;;27.34;37.26;100222.44;5072755;28;20019;-65
2023/08/26 08:23:29;;;;;;;;;;;;;;;27.37;37.19;100213.56;5072269;28;19962;-65
2023/08/26 08:25:55;;;;;;;;;;;;;;;27.44;37.17;100207.63;5055100;28;20353;-65
2023/08/26 08:28:20;;;;;;;;;;;;;;;27.59;36.89;100199.75;5072318;28;20416;-64
2023/08/26 08:30:45;;;;;;;;;;;;;;;27.66;36.83;100204.03;5072413;28;19947;-64
2023/08/26 08:33:11;;;;;;;;;;;;;;;27.74;36.74;100206.03;5071549;28;19991;-66
2023/08/26 08:35:37;;;;;;;;;;;;;;;27.81;36.93;100200.88;5072048;28;19997;-63
2023/08/26 08:38:02;;;;;;;;;;;;;;;27.81;36.47;100203.63;5071561;28;19920;-63
2023/08/26 08:40:28;;;;;;;;;;;;;;;27.85;36.65;100203.81;5068259;28;19920;-63
2023/08/26 08:42:54;;;;;;;;;;;;;;;27.79;36.59;100205.91;5072331;28;19917;-63
2023/08/26 08:45:20;;;;;;;;;;;;;;;27.82;36.72;100205.25;5072353;28;19997;-62
2023/08/26 08:47:46;;;;;;;;;;;;;;;27.93;36.57;100208.59;5072524;28;19966;-64
2023/08/26 08:50:14;;;;;;;;;;;;;;;28.02;36.32;100192.88;5053933;28;19919;-63
2023/08/26 08:52:41;;;;;;;;;;;;;;;28.08;36.50;100201.84;5072054;28;20376;-65
2023/08/26 08:55:07;;;;;;;;;;;;;;;28.15;36.30;100191.97;5071535;28;20261;-64
2023/08/26 08:57:34;;;;;;;;;;;;;;;28.09;35.99;100198.78;5071351;28;19912;-64
2023/08/26 09:00:03;;;;;;;;;;;;;;;28.12;36.42;100202.84;5072267;28;19956;-63
2023/08/26 09:02:29;;;;;;;;;;;;;;;28.12;35.98;100206.44;5075038;28;19916;-63
2023/08/26 09:04:54;;;;;;;;;;;;;;;28.18;35.93;100198.81;5075829;28;19923;-63
2023/08/26 09:07:20;;;;;;;;;;;;;;;28.12;35.89;100202.84;5075842;28;19912;-63
2023/08/26 09:09:45;;;;;;;;;;;;;;;28.16;36.10;100195.56;5075825;28;19913;-64
2023/08/26 09:12:11;;;;;;;;;;;;;;;28.24;36.11;100196.72;5075835;28;19931;-62
2023/08/26 09:14:36;;;;;;;;;;;;;;;28.27;36.10;100196.06;5075347;28;20349;-63
2023/08/26 09:17:17;;;;;;;;;;;;;;;28.31;36.08;100195.13;5075680;28;19935;-64
2023/08/26 09:19:52;;;;;;;;;;;;;;;28.33;35.97;100203.09;5075347;28;19916;-64
2023/08/26 09:22:19;;;;;;;;;;;;;;;28.37;36.14;100196.59;5075495;28;19920;-63
2023/08/26 09:24:45;;;;;;;;;;;;;;;28.42;35.90;100192.88;5075825;28;20323;-64
2023/08/26 09:27:10;;;;;;;;;;;;;;;28.47;36.33;100201.03;5075483;28;19913;-64
2023/08/26 09:29:36;;;;;;;;;;;;;;;28.52;35.95;100205.59;5075592;28;19920;-64
2023/08/26 09:32:03;;;;;;;;;;;;;;;28.55;35.72;100211.31;5075333;28;19924;-64
2023/08/26 09:34:33;;;;;;;;;;;;;;;28.60;35.86;100213.09;5075577;28;19913;-64
2023/08/26 09:36:59;;;;;;;;;;;;;;;28.57;35.60;100211.81;5075123;28;19913;-64
2023/08/26 09:39:25;;;;;;;;;;;;;;;28.56;35.63;100212.13;5075075;28;19917;-64
2023/08/26 09:41:51;;;;;;;;;;;;;;;28.57;35.52;100217.34;5074942;28;20285;-64
2023/08/26 09:44:17;;;;;;;;;;;;;;;28.63;35.40;100214.44;5074666;28;20384;-64
2023/08/26 09:46:43;;;;;;;;;;;;;;;28.58;35.67;100220.91;5074756;28;19962;-64
2023/08/26 09:49:11;;;;;;;;;;;;;;;28.50;35.38;100218.91;5075107;28;19920;-63
2023/08/26 09:51:37;;;;;;;;;;;;;;;28.41;35.61;100224.41;5075078;28;19912;-63
2023/08/26 09:54:03;;;;;;;;;;;;;;;28.36;35.75;100219.84;5073144;28;19912;-63
2023/08/26 09:56:28;;;;;;;;;;;;;;;28.34;35.41;100227.63;5074923;28;19930;-64
2023/08/26 09:58:55;;;;;;;;;;;;;;;28.34;35.64;100222.13;5074704;28;19912;-64
2023/08/26 10:01:21;;;;;;;;;;;;;;;28.30;35.44;100215.56;5074350;28;20451;-63
2023/08/26 10:03:49;;;;;;;;;;;;;;;28.30;35.23;100215.56;5074488;28;19959;-63
2023/08/26 10:06:16;;;;;;;;;;;;;;;28.25;35.35;100214.91;5074871;28;19912;-63
2023/08/26 10:08:41;;;;;;;;;;;;;;;28.13;35.49;100221.84;5074491;28;19916;-63
2023/08/26 10:11:07;;;;;;;;;;;;;;;28.15;35.28;100224.28;5074439;28;20003;-63
2023/08/26 10:13:35;;;;;;;;;;;;;;;28.17;35.15;100214.56;5074343;28;19912;-63
2023/08/26 10:16:01;;;;;;;;;;;;;;;28.23;35.60;100214.41;5074265;28;19919;-63
2023/08/26 10:18:41;;;;;;;;;;;;;;;28.26;35.57;100213.78;5074384;28;19913;-64
2023/08/26 10:21:07;;;;;;;;;;;;;;;28.37;35.95;100217.88;5074233;28;20373;-64
2023/08/26 10:23:32;;;;;;;;;;;;;;;28.46;35.55;100212.41;5074348;28;19927;-64
2023/08/26 10:25:58;;;;;;;;;;;;;;;28.54;34.97;100214.41;5074403;28;19965;-64
2023/08/26 10:28:24;;;;;;;;;;;;;;;28.53;35.03;100218.31;5073647;28;19912;-63
2023/08/26 10:30:50;;;;;;;;;;;;;;;28.59;35.39;100210.69;5073514;28;19923;-64
2023/08/26 10:33:18;;;;;;;;;;;;;;;28.76;35.25;100219.81;5074152;28;19917;-64
2023/08/26 10:35:56;;;;;;;;;;;;;;;28.77;34.94;100218.69;5074406;28;19912;-63
2023/08/26 10:38:21;;;;;;;;;;;;;;;28.78;34.85;100227.78;5074061;28;19958;-63
2023/08/26 10:40:46;;;;;;;;;;;;;;;28.75;35.24;100231.19;5073400;28;19920;-64
2023/08/26 10:43:12;;;;;;;;;;;;;;;28.75;35.24;100223.72;5073766;28;19920;-64
2023/08/26 10:45:47;;;;;;;;;;;;;;;28.82;35.11;100222.44;5073879;28;20298;-64
2023/08/26 10:48:12;;;;;;;;;;;;;;;28.81;35.45;100229.06;5074193;28;19912;-64
2023/08/26 10:50:40;;;;;;;;;;;;;;;28.75;35.51;100228.41;5073775;28;20003;-64
2023/08/26 10:53:19;;;;;;;;;;;;;;;28.76;35.32;100228.09;5073549;28;19919;-64
2023/08/26 10:55:47;;;;;;;;;;;;;;;28.80;35.12;100224.69;5073405;28;19951;-64
2023/08/26 10:58:12;;;;;;;;;;;;;;;28.77;34.97;100234.47;5073649;28;19913;-64
2023/08/26 11:00:39;;;;;;;;;;;;;;;28.80;34.92;100230.22;5073091;28;20266;-64
2023/08/26 11:03:08;;;;;;;;;;;;;;;28.67;34.63;100223.69;5072724;28;20323;-64
2023/08/26 11:05:36;;;;;;;;;;;;;;;28.61;35.17;100227.75;5072799;28;19963;-64
2023/08/26 11:08:02;;;;;;;;;;;;;;;28.62;34.75;100229.38;5072953;28;19961;-64
2023/08/26 11:10:29;;;;;;;;;;;;;;;28.60;34.95;100218.63;5072914;28;19920;-64
2023/08/26 11:12:54;;;;;;;;;;;;;;;28.56;34.92;100228.69;5073201;28;19918;-64
2023/08/26 11:15:20;;;;;;;;;;;;;;;28.51;34.44;100228.81;5072710;28;20011;-64
2023/08/26 11:17:47;;;;;;;;;;;;;;;28.50;34.67;100225.25;5073091;28;19912;-64
2023/08/26 11:20:12;;;;;;;;;;;;;;;28.50;35.01;100235.47;5073153;28;19940;-64
2023/08/26 11:22:38;;;;;;;;;;;;;;;28.50;35.25;100232.72;5073079;28;19935;-64
2023/08/26 11:25:03;;;;;;;;;;;;;;;28.56;34.99;100231.47;5072477;28;20046;-64
2023/08/26 11:27:28;;;;;;;;;;;;;;;28.61;35.23;100233.28;5073046;28;19923;-64
2023/08/26 11:29:54;;;;;;;;;;;;;;;28.73;35.01;100225.16;5073069;28;19912;-64
2023/08/26 11:32:19;;;;;;;;;;;;;;;28.79;34.73;100225.81;5072907;28;20293;-64
2023/08/26 11:34:44;;;;;;;;;;;;;;;28.87;35.04;100228.63;5072782;28;19913;-64
2023/08/26 11:37:09;;;;;;;;;;;;;;;28.91;34.66;100228.78;5073028;28;19912;-64
2023/08/26 11:39:35;;;;;;;;;;;;;;;28.91;34.36;100228.78;5072756;28;20940;-64
2023/08/26 11:42:13;;;;;;;;;;;;;;;28.88;34.54;100229.41;5072124;28;19923;-64
2023/08/26 11:44:38;;;;;;;;;;;;;;;28.93;34.32;100232.03;5072712;28;19913;-64
2023/08/26 11:47:04;;;;;;;;;;;;;;;28.92;34.36;100238.72;5072838;28;19916;-63
2023/08/26 11:49:29;;;;;;;;;;;;;;;28.91;34.58;100228.78;5055031;28;20238;-63
2023/08/26 11:51:55;;;;;;;;;;;;;;;28.84;34.90;100229.25;5072524;28;19978;-62
2023/08/26 11:54:24;;;;;;;;;;;;;;;28.77;34.80;100234.47;5071912;28;19912;-62
2023/08/26 11:56:49;;;;;;;;;;;;;;;28.84;34.73;100234.78;5072637;28;19916;-63
2023/08/26 11:59:21;;;;;;;;;;;;;;;28.76;34.58;100222.56;5072226;28;20316;-63
2023/08/26 12:01:47;;;;;;;;;;;;;;;28.73;34.54;100225.16;5072469;28;20343;-63
2023/08/26 12:04:13;;;;;;;;;;;;;;;28.74;34.68;100227.63;5087145;28;19981;-63
2023/08/26 12:06:39;;;;;;;;;;;;;;;28.69;34.50;100221.41;5092738;28;20291;-63
2023/08/26 12:09:04;;;;;;;;;;;;;;;28.64;34.69;100224.31;5092921;28;19919;-63
2023/08/26 12:11:34;;;;;;;;;;;;;;;28.63;34.81;100219.94;5093043;28;19916;-63
2023/08/26 12:14:00;;;;;;;;;;;;;;;28.66;34.51;100225.66;5093021;28;19919;-63
2023/08/26 12:16:25;;;;;;;;;;;;;;;28.66;34.67;100217.38;5093032;28;19912;-63
2023/08/26 12:18:53;;;;;;;;;;;;;;;28.70;34.70;100212.81;5092510;28;20391;-63
2023/08/26 12:21:18;;;;;;;;;;;;;;;28.71;34.75;100214.44;5092419;28;19966;-63
2023/08/26 12:23:44;;;;;;;;;;;;;;;28.77;34.95;100215.13;5092568;28;19916;-64
2023/08/26 12:26:13;;;;;;;;;;;;;;;28.76;34.41;100211.50;5092814;28;19931;-64
2023/08/26 12:28:39;;;;;;;;;;;;;;;28.74;34.71;100212.97;5093008;28;20360;-64